ENST/SSJ METAR and TAF weather

Enter ICAO airport designator
Station Type Date Time Source
ENST METAR 2018/12/13 16:20 UTC NOAA

ENST 131620Z 05005KT 350V080 9999 FEW035 M02/M05 Q1030 RMK WIND 300FT 05009KT


Station Type Date Time Source
ENST Decoded METAR 2018/12/13 16:20 UTC NOAA

Sandnessjoen / Stokka, Norway (ENST) 65-58N 012-28E 17M
Dec 13, 2018 - 11:20 AM EST / 2018.12.13 1620 UTC
Wind: from the NE (050 degrees) at 6 MPH (5 KT) (direction variable):0
Visibility: greater than 7 mile(s):0
Sky conditions: mostly clear
Temperature: 28 F (-2 C)
Windchill: 21 F (-6 C):1
Dew Point: 23 F (-5 C)
Relative Humidity: 79%
Pressure (altimeter): 30.42 in. Hg (1030 hPa)
ob: ENST 131620Z 05005KT 350V080 9999 FEW035 M02/M05 Q1030 RMK WIND 300FT 05009KT
cycle: 16

Station Type Date Time Source
ENST TAF UTC NOAA

Error!


Example: see airport list